sensor_id;sensor_type;location;lat;lon;timestamp;P1;durP1;ratioP1;P2;durP2;ratioP2
37063;SDS011;23211;53.912;9.138;2022-11-20T00:00:39;4.07;;;2.10;;
37063;SDS011;23211;53.912;9.138;2022-11-20T00:03:25;3.55;;;1.92;;
37063;SDS011;23211;53.912;9.138;2022-11-20T00:06:12;3.25;;;1.98;;
37063;SDS011;23211;53.912;9.138;2022-11-20T00:09:00;3.45;;;2.08;;
37063;SDS011;23211;53.912;9.138;2022-11-20T00:11:46;3.28;;;2.30;;
37063;SDS011;23211;53.912;9.138;2022-11-20T00:14:32;3.53;;;1.92;;
37063;SDS011;23211;53.912;9.138;2022-11-20T00:17:18;5.13;;;2.00;;
37063;SDS011;23211;53.912;9.138;2022-11-20T00:20:04;5.78;;;2.28;;
37063;SDS011;23211;53.912;9.138;2022-11-20T00:22:50;4.45;;;2.67;;
37063;SDS011;23211;53.912;9.138;2022-11-20T00:25:36;3.50;;;2.00;;
37063;SDS011;23211;53.912;9.138;2022-11-20T00:28:22;8.00;;;3.67;;
37063;SDS011;23211;53.912;9.138;2022-11-20T00:31:09;5.32;;;2.63;;
37063;SDS011;23211;53.912;9.138;2022-11-20T00:33:57;4.18;;;2.13;;
37063;SDS011;23211;53.912;9.138;2022-11-20T00:36:43;2.75;;;2.10;;
37063;SDS011;23211;53.912;9.138;2022-11-20T00:39:28;4.03;;;2.10;;
37063;SDS011;23211;53.912;9.138;2022-11-20T00:42:14;5.38;;;2.47;;
37063;SDS011;23211;53.912;9.138;2022-11-20T00:45:00;4.45;;;2.05;;
37063;SDS011;23211;53.912;9.138;2022-11-20T00:47:46;3.70;;;2.03;;
37063;SDS011;23211;53.912;9.138;2022-11-20T00:50:32;3.97;;;2.25;;
37063;SDS011;23211;53.912;9.138;2022-11-20T00:53:17;2.90;;;2.05;;
37063;SDS011;23211;53.912;9.138;2022-11-20T00:56:07;2.08;;;1.55;;
37063;SDS011;23211;53.912;9.138;2022-11-20T00:58:55;3.70;;;2.03;;
37063;SDS011;23211;53.912;9.138;2022-11-20T01:01:41;4.45;;;2.17;;
37063;SDS011;23211;53.912;9.138;2022-11-20T01:04:26;3.47;;;2.20;;
37063;SDS011;23211;53.912;9.138;2022-11-20T01:07:12;4.32;;;2.38;;
37063;SDS011;23211;53.912;9.138;2022-11-20T01:09:58;2.90;;;2.15;;
37063;SDS011;23211;53.912;9.138;2022-11-20T01:12:44;5.97;;;2.17;;
37063;SDS011;23211;53.912;9.138;2022-11-20T01:15:50;8.73;;;2.30;;
37063;SDS011;23211;53.912;9.138;2022-11-20T01:18:37;5.60;;;2.10;;
37063;SDS011;23211;53.912;9.138;2022-11-20T01:21:25;4.47;;;1.83;;
37063;SDS011;23211;53.912;9.138;2022-11-20T01:24:14;3.63;;;2.15;;
37063;SDS011;23211;53.912;9.138;2022-11-20T01:27:01;3.65;;;2.40;;
37063;SDS011;23211;53.912;9.138;2022-11-20T01:29:47;3.75;;;2.15;;
37063;SDS011;23211;53.912;9.138;2022-11-20T01:32:33;3.03;;;2.17;;
37063;SDS011;23211;53.912;9.138;2022-11-20T01:35:19;4.03;;;2.53;;
37063;SDS011;23211;53.912;9.138;2022-11-20T01:38:05;11.73;;;5.65;;
37063;SDS011;23211;53.912;9.138;2022-11-20T01:40:54;8.43;;;3.60;;
37063;SDS011;23211;53.912;9.138;2022-11-20T01:43:41;6.20;;;2.67;;
37063;SDS011;23211;53.912;9.138;2022-11-20T01:46:26;4.65;;;1.80;;
37063;SDS011;23211;53.912;9.138;2022-11-20T01:49:20;3.55;;;1.88;;
37063;SDS011;23211;53.912;9.138;2022-11-20T01:52:20;3.53;;;1.85;;
37063;SDS011;23211;53.912;9.138;2022-11-20T01:55:14;4.35;;;2.05;;
37063;SDS011;23211;53.912;9.138;2022-11-20T01:58:04;3.47;;;2.08;;
37063;SDS011;23211;53.912;9.138;2022-11-20T02:00:51;3.75;;;2.30;;
37063;SDS011;23211;53.912;9.138;2022-11-20T02:03:37;3.88;;;2.30;;
37063;SDS011;23211;53.912;9.138;2022-11-20T02:09:14;4.65;;;1.98;;
37063;SDS011;23211;53.912;9.138;2022-11-20T02:12:00;4.03;;;1.52;;
37063;SDS011;23211;53.912;9.138;2022-11-20T02:14:46;3.05;;;2.10;;
37063;SDS011;23211;53.912;9.138;2022-11-20T02:17:32;4.38;;;2.00;;
37063;SDS011;23211;53.912;9.138;2022-11-20T02:20:17;4.68;;;1.85;;
37063;SDS011;23211;53.912;9.138;2022-11-20T02:23:05;4.95;;;1.80;;
37063;SDS011;23211;53.912;9.138;2022-11-20T02:25:52;2.97;;;1.65;;
37063;SDS011;23211;53.912;9.138;2022-11-20T02:28:39;4.40;;;1.85;;
37063;SDS011;23211;53.912;9.138;2022-11-20T02:31:25;4.07;;;1.90;;
37063;SDS011;23211;53.912;9.138;2022-11-20T02:34:12;2.50;;;1.70;;
37063;SDS011;23211;53.912;9.138;2022-11-20T02:36:57;4.10;;;2.20;;
37063;SDS011;23211;53.912;9.138;2022-11-20T02:39:45;2.13;;;1.75;;
37063;SDS011;23211;53.912;9.138;2022-11-20T02:42:32;4.40;;;1.90;;
37063;SDS011;23211;53.912;9.138;2022-11-20T02:45:18;4.45;;;2.00;;
37063;SDS011;23211;53.912;9.138;2022-11-20T02:48:05;8.23;;;1.90;;
37063;SDS011;23211;53.912;9.138;2022-11-20T02:50:51;3.15;;;2.08;;
37063;SDS011;23211;53.912;9.138;2022-11-20T02:53:37;4.28;;;2.17;;
37063;SDS011;23211;53.912;9.138;2022-11-20T02:56:23;6.88;;;2.00;;
37063;SDS011;23211;53.912;9.138;2022-11-20T02:59:09;3.85;;;1.95;;
37063;SDS011;23211;53.912;9.138;2022-11-20T03:01:55;4.47;;;2.28;;
37063;SDS011;23211;53.912;9.138;2022-11-20T03:04:41;4.70;;;2.10;;
37063;SDS011;23211;53.912;9.138;2022-11-20T03:07:27;3.03;;;1.73;;
37063;SDS011;23211;53.912;9.138;2022-11-20T03:10:13;4.32;;;2.50;;
37063;SDS011;23211;53.912;9.138;2022-11-20T03:12:58;2.70;;;1.60;;
37063;SDS011;23211;53.912;9.138;2022-11-20T03:15:44;3.33;;;2.25;;
37063;SDS011;23211;53.912;9.138;2022-11-20T03:18:30;3.15;;;1.70;;
37063;SDS011;23211;53.912;9.138;2022-11-20T03:21:16;2.33;;;1.80;;
37063;SDS011;23211;53.912;9.138;2022-11-20T03:24:02;2.42;;;1.50;;
37063;SDS011;23211;53.912;9.138;2022-11-20T03:26:48;2.65;;;1.67;;
37063;SDS011;23211;53.912;9.138;2022-11-20T03:29:37;3.47;;;1.63;;
37063;SDS011;23211;53.912;9.138;2022-11-20T03:32:22;3.67;;;1.77;;
37063;SDS011;23211;53.912;9.138;2022-11-20T03:35:08;3.88;;;1.73;;
37063;SDS011;23211;53.912;9.138;2022-11-20T03:37:55;5.15;;;2.17;;
37063;SDS011;23211;53.912;9.138;2022-11-20T03:40:40;6.70;;;2.17;;
37063;SDS011;23211;53.912;9.138;2022-11-20T03:43:26;2.72;;;1.77;;
37063;SDS011;23211;53.912;9.138;2022-11-20T03:46:12;3.40;;;1.88;;
37063;SDS011;23211;53.912;9.138;2022-11-20T03:48:58;2.35;;;1.80;;
37063;SDS011;23211;53.912;9.138;2022-11-20T03:51:44;2.00;;;1.50;;
37063;SDS011;23211;53.912;9.138;2022-11-20T03:54:30;3.28;;;2.03;;
37063;SDS011;23211;53.912;9.138;2022-11-20T03:57:16;4.05;;;1.92;;
37063;SDS011;23211;53.912;9.138;2022-11-20T04:00:02;2.22;;;1.67;;
37063;SDS011;23211;53.912;9.138;2022-11-20T04:02:50;3.47;;;1.88;;
37063;SDS011;23211;53.912;9.138;2022-11-20T04:05:35;5.50;;;2.03;;
37063;SDS011;23211;53.912;9.138;2022-11-20T04:08:21;4.22;;;1.90;;
37063;SDS011;23211;53.912;9.138;2022-11-20T04:14:01;3.70;;;2.10;;
37063;SDS011;23211;53.912;9.138;2022-11-20T04:16:49;6.65;;;2.40;;
37063;SDS011;23211;53.912;9.138;2022-11-20T04:19:35;3.83;;;1.80;;
37063;SDS011;23211;53.912;9.138;2022-11-20T04:22:21;4.65;;;1.80;;
37063;SDS011;23211;53.912;9.138;2022-11-20T04:25:07;3.67;;;1.88;;
37063;SDS011;23211;53.912;9.138;2022-11-20T04:27:53;6.50;;;2.13;;
37063;SDS011;23211;53.912;9.138;2022-11-20T04:30:39;4.95;;;2.05;;
37063;SDS011;23211;53.912;9.138;2022-11-20T04:33:24;3.83;;;2.08;;
37063;SDS011;23211;53.912;9.138;2022-11-20T04:36:11;2.90;;;1.83;;
37063;SDS011;23211;53.912;9.138;2022-11-20T04:39:00;3.95;;;1.95;;
37063;SDS011;23211;53.912;9.138;2022-11-20T04:41:48;3.03;;;2.10;;
37063;SDS011;23211;53.912;9.138;2022-11-20T04:44:54;5.68;;;2.17;;
37063;SDS011;23211;53.912;9.138;2022-11-20T04:47:40;3.15;;;1.92;;
37063;SDS011;23211;53.912;9.138;2022-11-20T04:50:26;5.35;;;2.00;;
37063;SDS011;23211;53.912;9.138;2022-11-20T04:53:12;4.30;;;1.75;;
37063;SDS011;23211;53.912;9.138;2022-11-20T04:56:08;3.55;;;2.20;;
37063;SDS011;23211;53.912;9.138;2022-11-20T04:58:55;4.70;;;1.75;;
37063;SDS011;23211;53.912;9.138;2022-11-20T05:01:41;2.50;;;1.63;;
37063;SDS011;23211;53.912;9.138;2022-11-20T05:04:27;4.38;;;2.20;;
37063;SDS011;23211;53.912;9.138;2022-11-20T05:07:12;4.35;;;2.10;;
37063;SDS011;23211;53.912;9.138;2022-11-20T05:09:58;2.95;;;1.90;;
37063;SDS011;23211;53.912;9.138;2022-11-20T05:12:44;3.85;;;2.20;;
37063;SDS011;23211;53.912;9.138;2022-11-20T05:15:30;2.80;;;2.00;;
37063;SDS011;23211;53.912;9.138;2022-11-20T05:18:16;4.75;;;1.98;;
37063;SDS011;23211;53.912;9.138;2022-11-20T05:21:01;2.35;;;1.60;;
37063;SDS011;23211;53.912;9.138;2022-11-20T05:23:47;5.72;;;2.03;;
37063;SDS011;23211;53.912;9.138;2022-11-20T05:26:33;3.35;;;1.77;;
37063;SDS011;23211;53.912;9.138;2022-11-20T05:29:19;2.80;;;1.98;;
37063;SDS011;23211;53.912;9.138;2022-11-20T05:32:05;7.20;;;2.08;;
37063;SDS011;23211;53.912;9.138;2022-11-20T05:34:54;2.22;;;1.80;;
37063;SDS011;23211;53.912;9.138;2022-11-20T05:37:40;4.28;;;1.70;;
37063;SDS011;23211;53.912;9.138;2022-11-20T05:40:25;2.85;;;1.63;;
37063;SDS011;23211;53.912;9.138;2022-11-20T05:43:11;3.15;;;2.17;;
37063;SDS011;23211;53.912;9.138;2022-11-20T05:45:57;4.85;;;2.15;;
37063;SDS011;23211;53.912;9.138;2022-11-20T05:48:43;4.47;;;2.25;;
37063;SDS011;23211;53.912;9.138;2022-11-20T05:51:30;5.57;;;1.98;;
37063;SDS011;23211;53.912;9.138;2022-11-20T05:54:16;3.50;;;2.58;;
37063;SDS011;23211;53.912;9.138;2022-11-20T05:57:01;3.90;;;2.10;;
37063;SDS011;23211;53.912;9.138;2022-11-20T05:59:47;5.65;;;2.13;;
37063;SDS011;23211;53.912;9.138;2022-11-20T06:02:34;3.88;;;2.20;;
37063;SDS011;23211;53.912;9.138;2022-11-20T06:05:21;4.05;;;2.40;;
37063;SDS011;23211;53.912;9.138;2022-11-20T06:08:07;4.85;;;2.30;;
37063;SDS011;23211;53.912;9.138;2022-11-20T06:10:53;6.88;;;2.40;;
37063;SDS011;23211;53.912;9.138;2022-11-20T06:13:39;3.38;;;2.15;;
37063;SDS011;23211;53.912;9.138;2022-11-20T06:16:25;4.72;;;1.85;;
37063;SDS011;23211;53.912;9.138;2022-11-20T06:19:11;2.75;;;2.05;;
37063;SDS011;23211;53.912;9.138;2022-11-20T06:21:57;4.22;;;2.03;;
37063;SDS011;23211;53.912;9.138;2022-11-20T06:24:43;3.10;;;2.20;;
37063;SDS011;23211;53.912;9.138;2022-11-20T06:27:29;3.25;;;1.98;;
37063;SDS011;23211;53.912;9.138;2022-11-20T06:30:15;6.68;;;2.17;;
37063;SDS011;23211;53.912;9.138;2022-11-20T06:33:01;4.95;;;2.08;;
37063;SDS011;23211;53.912;9.138;2022-11-20T06:35:47;4.57;;;2.38;;
37063;SDS011;23211;53.912;9.138;2022-11-20T06:38:33;3.53;;;2.10;;
37063;SDS011;23211;53.912;9.138;2022-11-20T06:41:20;11.43;;;2.58;;
37063;SDS011;23211;53.912;9.138;2022-11-20T06:44:06;3.70;;;2.75;;
37063;SDS011;23211;53.912;9.138;2022-11-20T06:46:52;3.40;;;2.58;;
37063;SDS011;23211;53.912;9.138;2022-11-20T06:49:38;4.93;;;2.75;;
37063;SDS011;23211;53.912;9.138;2022-11-20T06:52:24;5.30;;;3.33;;
37063;SDS011;23211;53.912;9.138;2022-11-20T06:55:10;5.85;;;3.03;;
37063;SDS011;23211;53.912;9.138;2022-11-20T06:57:55;4.53;;;3.03;;
37063;SDS011;23211;53.912;9.138;2022-11-20T07:00:41;12.43;;;3.47;;
37063;SDS011;23211;53.912;9.138;2022-11-20T07:03:28;3.83;;;2.53;;
37063;SDS011;23211;53.912;9.138;2022-11-20T07:06:13;6.47;;;2.80;;
37063;SDS011;23211;53.912;9.138;2022-11-20T07:08:59;5.97;;;3.05;;
37063;SDS011;23211;53.912;9.138;2022-11-20T07:11:45;5.25;;;3.05;;
37063;SDS011;23211;53.912;9.138;2022-11-20T07:14:31;5.57;;;3.63;;
37063;SDS011;23211;53.912;9.138;2022-11-20T07:17:17;5.30;;;3.13;;
37063;SDS011;23211;53.912;9.138;2022-11-20T07:20:03;5.20;;;3.35;;
37063;SDS011;23211;53.912;9.138;2022-11-20T07:22:53;4.57;;;2.85;;
37063;SDS011;23211;53.912;9.138;2022-11-20T07:25:40;4.65;;;3.25;;
37063;SDS011;23211;53.912;9.138;2022-11-20T07:28:25;4.45;;;3.28;;
37063;SDS011;23211;53.912;9.138;2022-11-20T07:31:11;4.45;;;3.05;;
37063;SDS011;23211;53.912;9.138;2022-11-20T07:33:58;3.90;;;3.13;;
37063;SDS011;23211;53.912;9.138;2022-11-20T07:36:44;4.93;;;3.67;;
37063;SDS011;23211;53.912;9.138;2022-11-20T07:39:30;5.40;;;3.30;;
37063;SDS011;23211;53.912;9.138;2022-11-20T07:42:15;6.93;;;4.85;;
37063;SDS011;23211;53.912;9.138;2022-11-20T07:45:01;5.80;;;4.28;;
37063;SDS011;23211;53.912;9.138;2022-11-20T07:47:47;4.15;;;3.45;;
37063;SDS011;23211;53.912;9.138;2022-11-20T07:50:33;5.03;;;3.25;;
37063;SDS011;23211;53.912;9.138;2022-11-20T07:53:19;5.75;;;3.25;;
37063;SDS011;23211;53.912;9.138;2022-11-20T07:56:07;6.85;;;3.70;;
37063;SDS011;23211;53.912;9.138;2022-11-20T07:58:52;6.47;;;3.38;;
37063;SDS011;23211;53.912;9.138;2022-11-20T08:01:39;3.95;;;2.95;;
37063;SDS011;23211;53.912;9.138;2022-11-20T08:04:25;3.83;;;3.40;;
37063;SDS011;23211;53.912;9.138;2022-11-20T08:07:11;4.05;;;3.10;;
37063;SDS011;23211;53.912;9.138;2022-11-20T08:09:57;4.70;;;3.63;;
37063;SDS011;23211;53.912;9.138;2022-11-20T08:12:44;3.95;;;3.17;;
37063;SDS011;23211;53.912;9.138;2022-11-20T08:15:49;5.10;;;3.38;;
37063;SDS011;23211;53.912;9.138;2022-11-20T08:18:36;4.28;;;3.38;;
37063;SDS011;23211;53.912;9.138;2022-11-20T08:21:22;4.80;;;3.33;;
37063;SDS011;23211;53.912;9.138;2022-11-20T08:24:08;4.18;;;3.30;;
37063;SDS011;23211;53.912;9.138;2022-11-20T08:26:56;5.28;;;3.58;;
37063;SDS011;23211;53.912;9.138;2022-11-20T08:29:43;4.88;;;3.15;;
37063;SDS011;23211;53.912;9.138;2022-11-20T08:32:29;3.22;;;2.80;;
37063;SDS011;23211;53.912;9.138;2022-11-20T08:35:15;5.18;;;3.55;;
37063;SDS011;23211;53.912;9.138;2022-11-20T08:38:02;6.63;;;3.78;;
37063;SDS011;23211;53.912;9.138;2022-11-20T08:40:48;4.90;;;3.22;;
37063;SDS011;23211;53.912;9.138;2022-11-20T08:43:55;7.85;;;3.50;;
37063;SDS011;23211;53.912;9.138;2022-11-20T08:46:41;4.95;;;4.00;;
37063;SDS011;23211;53.912;9.138;2022-11-20T08:49:28;10.40;;;3.70;;
37063;SDS011;23211;53.912;9.138;2022-11-20T08:52:14;5.80;;;4.05;;
37063;SDS011;23211;53.912;9.138;2022-11-20T08:55:00;6.13;;;4.57;;
37063;SDS011;23211;53.912;9.138;2022-11-20T08:57:46;5.10;;;3.85;;
37063;SDS011;23211;53.912;9.138;2022-11-20T09:00:32;5.68;;;4.40;;
37063;SDS011;23211;53.912;9.138;2022-11-20T09:03:19;6.20;;;4.78;;
37063;SDS011;23211;53.912;9.138;2022-11-20T09:06:06;10.50;;;4.93;;
37063;SDS011;23211;53.912;9.138;2022-11-20T09:08:53;8.00;;;5.15;;
37063;SDS011;23211;53.912;9.138;2022-11-20T09:11:39;4.50;;;3.95;;
37063;SDS011;23211;53.912;9.138;2022-11-20T09:14:25;6.13;;;3.88;;
37063;SDS011;23211;53.912;9.138;2022-11-20T09:17:14;6.43;;;4.63;;
37063;SDS011;23211;53.912;9.138;2022-11-20T09:20:00;5.68;;;4.47;;
37063;SDS011;23211;53.912;9.138;2022-11-20T09:22:46;6.05;;;4.22;;
37063;SDS011;23211;53.912;9.138;2022-11-20T09:25:32;7.28;;;4.40;;
37063;SDS011;23211;53.912;9.138;2022-11-20T09:28:18;5.78;;;4.70;;
37063;SDS011;23211;53.912;9.138;2022-11-20T09:31:22;10.90;;;4.90;;
37063;SDS011;23211;53.912;9.138;2022-11-20T09:34:09;6.05;;;4.57;;
37063;SDS011;23211;53.912;9.138;2022-11-20T09:36:55;7.65;;;5.18;;
37063;SDS011;23211;53.912;9.138;2022-11-20T09:39:41;5.57;;;4.50;;
37063;SDS011;23211;53.912;9.138;2022-11-20T09:42:32;5.93;;;5.05;;
37063;SDS011;23211;53.912;9.138;2022-11-20T09:48:48;10.32;;;7.30;;
37063;SDS011;23211;53.912;9.138;2022-11-20T09:54:36;7.45;;;6.35;;
37063;SDS011;23211;53.912;9.138;2022-11-20T09:57:33;8.23;;;6.65;;
37063;SDS011;23211;53.912;9.138;2022-11-20T10:00:21;9.52;;;6.28;;
37063;SDS011;23211;53.912;9.138;2022-11-20T10:03:13;8.80;;;6.28;;
37063;SDS011;23211;53.912;9.138;2022-11-20T10:06:04;7.88;;;5.85;;
37063;SDS011;23211;53.912;9.138;2022-11-20T10:15:17;7.85;;;5.18;;
37063;SDS011;23211;53.912;9.138;2022-11-20T10:24:44;6.18;;;5.20;;
37063;SDS011;23211;53.912;9.138;2022-11-20T10:30:30;4.90;;;4.18;;
37063;SDS011;23211;53.912;9.138;2022-11-20T10:33:24;5.28;;;4.60;;
37063;SDS011;23211;53.912;9.138;2022-11-20T10:36:19;6.90;;;4.68;;
37063;SDS011;23211;53.912;9.138;2022-11-20T10:39:20;9.73;;;6.10;;
37063;SDS011;23211;53.912;9.138;2022-11-20T10:42:11;8.35;;;4.97;;
37063;SDS011;23211;53.912;9.138;2022-11-20T10:45:47;7.60;;;4.30;;
37063;SDS011;23211;53.912;9.138;2022-11-20T10:48:12;6.38;;;4.03;;
37063;SDS011;23211;53.912;9.138;2022-11-20T10:57:15;5.80;;;4.43;;
37063;SDS011;23211;53.912;9.138;2022-11-20T11:00:10;6.35;;;3.95;;
37063;SDS011;23211;53.912;9.138;2022-11-20T11:02:56;4.22;;;3.55;;
37063;SDS011;23211;53.912;9.138;2022-11-20T11:05:53;4.55;;;3.70;;
37063;SDS011;23211;53.912;9.138;2022-11-20T11:08:43;21.90;;;11.07;;
37063;SDS011;23211;53.912;9.138;2022-11-20T11:11:33;7.30;;;4.80;;
37063;SDS011;23211;53.912;9.138;2022-11-20T11:14:19;4.95;;;3.75;;
37063;SDS011;23211;53.912;9.138;2022-11-20T11:17:17;4.75;;;2.70;;
37063;SDS011;23211;53.912;9.138;2022-11-20T11:20:16;5.15;;;4.45;;
37063;SDS011;23211;53.912;9.138;2022-11-20T11:23:04;6.28;;;4.95;;
37063;SDS011;23211;53.912;9.138;2022-11-20T11:26:21;5.10;;;3.85;;
37063;SDS011;23211;53.912;9.138;2022-11-20T11:29:15;9.98;;;7.28;;
37063;SDS011;23211;53.912;9.138;2022-11-20T11:32:17;6.68;;;4.65;;
37063;SDS011;23211;53.912;9.138;2022-11-20T11:35:06;3.40;;;3.10;;
37063;SDS011;23211;53.912;9.138;2022-11-20T11:38:22;6.93;;;3.50;;
37063;SDS011;23211;53.912;9.138;2022-11-20T11:41:16;3.40;;;2.70;;
37063;SDS011;23211;53.912;9.138;2022-11-20T11:47:29;3.33;;;2.83;;
37063;SDS011;23211;53.912;9.138;2022-11-20T11:50:19;3.42;;;2.58;;
37063;SDS011;23211;53.912;9.138;2022-11-20T11:53:14;4.25;;;3.10;;
37063;SDS011;23211;53.912;9.138;2022-11-20T11:56:07;2.38;;;2.17;;
37063;SDS011;23211;53.912;9.138;2022-11-20T11:58:55;2.90;;;2.40;;
37063;SDS011;23211;53.912;9.138;2022-11-20T12:01:48;4.70;;;2.88;;
37063;SDS011;23211;53.912;9.138;2022-11-20T12:04:45;3.47;;;2.85;;
37063;SDS011;23211;53.912;9.138;2022-11-20T12:07:46;3.95;;;3.03;;
37063;SDS011;23211;53.912;9.138;2022-11-20T12:16:20;2.83;;;2.13;;
37063;SDS011;23211;53.912;9.138;2022-11-20T12:19:13;3.55;;;2.40;;
37063;SDS011;23211;53.912;9.138;2022-11-20T12:25:07;3.80;;;2.22;;
37063;SDS011;23211;53.912;9.138;2022-11-20T12:43:44;5.18;;;4.20;;
37063;SDS011;23211;53.912;9.138;2022-11-20T12:47:12;4.90;;;3.40;;
37063;SDS011;23211;53.912;9.138;2022-11-20T12:50:14;2.55;;;2.30;;
37063;SDS011;23211;53.912;9.138;2022-11-20T13:02:23;3.78;;;3.08;;
37063;SDS011;23211;53.912;9.138;2022-11-20T13:05:20;3.58;;;2.65;;
37063;SDS011;23211;53.912;9.138;2022-11-20T13:08:20;4.65;;;3.67;;
37063;SDS011;23211;53.912;9.138;2022-11-20T13:11:11;4.47;;;2.58;;
37063;SDS011;23211;53.912;9.138;2022-11-20T13:14:10;3.03;;;2.38;;
37063;SDS011;23211;53.912;9.138;2022-11-20T13:19:49;3.90;;;3.13;;
37063;SDS011;23211;53.912;9.138;2022-11-20T13:25:35;3.92;;;2.65;;
37063;SDS011;23211;53.912;9.138;2022-11-20T13:31:09;3.78;;;2.65;;
37063;SDS011;23211;53.912;9.138;2022-11-20T13:34:24;6.40;;;2.88;;
37063;SDS011;23211;53.912;9.138;2022-11-20T13:37:23;3.15;;;2.58;;
37063;SDS011;23211;53.912;9.138;2022-11-20T13:40:21;3.42;;;2.90;;
37063;SDS011;23211;53.912;9.138;2022-11-20T13:46:14;5.15;;;2.95;;
37063;SDS011;23211;53.912;9.138;2022-11-20T13:49:00;4.70;;;3.67;;
37063;SDS011;23211;53.912;9.138;2022-11-20T13:52:37;3.03;;;2.72;;
37063;SDS011;23211;53.912;9.138;2022-11-20T13:55:12;3.35;;;2.60;;
37063;SDS011;23211;53.912;9.138;2022-11-20T14:01:23;6.07;;;4.78;;
37063;SDS011;23211;53.912;9.138;2022-11-20T14:04:15;9.90;;;7.63;;
37063;SDS011;23211;53.912;9.138;2022-11-20T14:07:05;8.90;;;3.22;;
37063;SDS011;23211;53.912;9.138;2022-11-20T14:09:55;4.53;;;3.17;;
37063;SDS011;23211;53.912;9.138;2022-11-20T14:12:42;4.43;;;3.35;;
37063;SDS011;23211;53.912;9.138;2022-11-20T14:15:29;3.95;;;2.92;;
37063;SDS011;23211;53.912;9.138;2022-11-20T14:18:20;3.38;;;2.92;;
37063;SDS011;23211;53.912;9.138;2022-11-20T14:21:09;6.35;;;3.83;;
37063;SDS011;23211;53.912;9.138;2022-11-20T14:24:04;6.22;;;4.78;;
37063;SDS011;23211;53.912;9.138;2022-11-20T14:26:51;4.80;;;4.10;;
37063;SDS011;23211;53.912;9.138;2022-11-20T14:29:38;3.53;;;2.97;;
37063;SDS011;23211;53.912;9.138;2022-11-20T14:32:25;5.53;;;3.15;;
37063;SDS011;23211;53.912;9.138;2022-11-20T14:38:32;3.60;;;2.83;;
37063;SDS011;23211;53.912;9.138;2022-11-20T14:41:22;3.53;;;2.53;;
37063;SDS011;23211;53.912;9.138;2022-11-20T14:44:09;4.97;;;3.20;;
37063;SDS011;23211;53.912;9.138;2022-11-20T14:46:55;3.97;;;3.20;;
37063;SDS011;23211;53.912;9.138;2022-11-20T14:49:43;5.97;;;3.13;;
37063;SDS011;23211;53.912;9.138;2022-11-20T14:52:29;3.45;;;2.67;;
37063;SDS011;23211;53.912;9.138;2022-11-20T14:55:24;3.63;;;2.88;;
37063;SDS011;23211;53.912;9.138;2022-11-20T14:58:21;4.18;;;2.50;;
37063;SDS011;23211;53.912;9.138;2022-11-20T15:01:11;5.75;;;3.22;;
37063;SDS011;23211;53.912;9.138;2022-11-20T15:04:09;4.03;;;2.97;;
37063;SDS011;23211;53.912;9.138;2022-11-20T15:06:58;5.15;;;3.00;;
37063;SDS011;23211;53.912;9.138;2022-11-20T15:09:44;3.15;;;2.58;;
37063;SDS011;23211;53.912;9.138;2022-11-20T15:12:31;4.18;;;2.75;;
37063;SDS011;23211;53.912;9.138;2022-11-20T15:18:27;8.02;;;3.67;;
37063;SDS011;23211;53.912;9.138;2022-11-20T15:21:21;7.55;;;4.30;;
37063;SDS011;23211;53.912;9.138;2022-11-20T15:24:08;9.98;;;6.10;;
37063;SDS011;23211;53.912;9.138;2022-11-20T15:26:55;11.25;;;6.53;;
37063;SDS011;23211;53.912;9.138;2022-11-20T15:29:43;12.13;;;7.45;;
37063;SDS011;23211;53.912;9.138;2022-11-20T15:32:29;11.13;;;7.55;;
37063;SDS011;23211;53.912;9.138;2022-11-20T15:35:15;13.57;;;7.80;;
37063;SDS011;23211;53.912;9.138;2022-11-20T15:38:01;11.57;;;7.55;;
37063;SDS011;23211;53.912;9.138;2022-11-20T15:40:47;20.00;;;9.10;;
37063;SDS011;23211;53.912;9.138;2022-11-20T15:43:33;10.23;;;5.63;;
37063;SDS011;23211;53.912;9.138;2022-11-20T15:46:21;7.85;;;5.65;;
37063;SDS011;23211;53.912;9.138;2022-11-20T15:49:13;8.95;;;5.68;;
37063;SDS011;23211;53.912;9.138;2022-11-20T15:52:00;12.63;;;7.78;;
37063;SDS011;23211;53.912;9.138;2022-11-20T15:54:46;8.85;;;6.38;;
37063;SDS011;23211;53.912;9.138;2022-11-20T15:57:32;9.95;;;6.20;;
37063;SDS011;23211;53.912;9.138;2022-11-20T16:00:18;7.88;;;5.75;;
37063;SDS011;23211;53.912;9.138;2022-11-20T16:03:04;8.75;;;4.95;;
37063;SDS011;23211;53.912;9.138;2022-11-20T16:05:50;9.65;;;5.10;;
37063;SDS011;23211;53.912;9.138;2022-11-20T16:08:36;7.40;;;4.82;;
37063;SDS011;23211;53.912;9.138;2022-11-20T16:11:22;8.98;;;6.55;;
37063;SDS011;23211;53.912;9.138;2022-11-20T16:14:09;14.23;;;9.48;;
37063;SDS011;23211;53.912;9.138;2022-11-20T16:17:14;15.30;;;8.27;;
37063;SDS011;23211;53.912;9.138;2022-11-20T16:20:00;11.18;;;7.32;;
37063;SDS011;23211;53.912;9.138;2022-11-20T16:22:46;28.27;;;19.48;;
37063;SDS011;23211;53.912;9.138;2022-11-20T16:25:32;20.77;;;13.73;;
37063;SDS011;23211;53.912;9.138;2022-11-20T16:28:18;20.00;;;12.38;;
37063;SDS011;23211;53.912;9.138;2022-11-20T16:31:11;16.33;;;10.75;;
37063;SDS011;23211;53.912;9.138;2022-11-20T16:34:00;16.50;;;9.93;;
37063;SDS011;23211;53.912;9.138;2022-11-20T16:36:48;15.60;;;9.98;;
37063;SDS011;23211;53.912;9.138;2022-11-20T16:39:34;21.17;;;10.10;;
37063;SDS011;23211;53.912;9.138;2022-11-20T16:42:20;13.55;;;8.68;;
37063;SDS011;23211;53.912;9.138;2022-11-20T16:45:06;17.70;;;12.07;;
37063;SDS011;23211;53.912;9.138;2022-11-20T16:47:52;13.43;;;9.27;;
37063;SDS011;23211;53.912;9.138;2022-11-20T16:50:43;15.82;;;9.93;;
37063;SDS011;23211;53.912;9.138;2022-11-20T16:53:30;15.35;;;9.48;;
37063;SDS011;23211;53.912;9.138;2022-11-20T16:56:19;10.27;;;6.68;;
37063;SDS011;23211;53.912;9.138;2022-11-20T16:59:06;10.75;;;6.72;;
37063;SDS011;23211;53.912;9.138;2022-11-20T17:01:52;10.50;;;6.43;;
37063;SDS011;23211;53.912;9.138;2022-11-20T17:04:37;8.40;;;6.00;;
37063;SDS011;23211;53.912;9.138;2022-11-20T17:07:23;8.10;;;5.30;;
37063;SDS011;23211;53.912;9.138;2022-11-20T17:10:09;7.65;;;4.90;;
37063;SDS011;23211;53.912;9.138;2022-11-20T17:12:55;6.13;;;3.95;;
37063;SDS011;23211;53.912;9.138;2022-11-20T17:15:41;4.35;;;3.95;;
37063;SDS011;23211;53.912;9.138;2022-11-20T17:18:27;7.68;;;4.57;;
37063;SDS011;23211;53.912;9.138;2022-11-20T17:21:13;10.15;;;6.50;;
37063;SDS011;23211;53.912;9.138;2022-11-20T17:23:59;7.95;;;6.22;;
37063;SDS011;23211;53.912;9.138;2022-11-20T17:26:47;8.55;;;6.30;;
37063;SDS011;23211;53.912;9.138;2022-11-20T17:29:33;11.23;;;7.03;;
37063;SDS011;23211;53.912;9.138;2022-11-20T17:32:19;8.07;;;6.35;;
37063;SDS011;23211;53.912;9.138;2022-11-20T17:35:05;9.18;;;6.68;;
37063;SDS011;23211;53.912;9.138;2022-11-20T17:37:51;8.00;;;6.03;;
37063;SDS011;23211;53.912;9.138;2022-11-20T17:40:37;13.77;;;7.03;;
37063;SDS011;23211;53.912;9.138;2022-11-20T17:43:23;13.48;;;9.45;;
37063;SDS011;23211;53.912;9.138;2022-11-20T17:46:10;19.70;;;12.05;;
37063;SDS011;23211;53.912;9.138;2022-11-20T17:48:58;19.20;;;12.48;;
37063;SDS011;23211;53.912;9.138;2022-11-20T17:51:44;20.70;;;13.05;;
37063;SDS011;23211;53.912;9.138;2022-11-20T17:54:30;21.77;;;12.93;;
37063;SDS011;23211;53.912;9.138;2022-11-20T17:57:16;22.52;;;15.38;;
37063;SDS011;23211;53.912;9.138;2022-11-20T18:00:21;20.60;;;13.57;;
37063;SDS011;23211;53.912;9.138;2022-11-20T18:03:07;16.58;;;11.60;;
37063;SDS011;23211;53.912;9.138;2022-11-20T18:05:53;14.48;;;10.18;;
37063;SDS011;23211;53.912;9.138;2022-11-20T18:08:39;13.48;;;9.13;;
37063;SDS011;23211;53.912;9.138;2022-11-20T18:11:26;12.05;;;8.93;;
37063;SDS011;23211;53.912;9.138;2022-11-20T18:14:14;17.63;;;10.32;;
37063;SDS011;23211;53.912;9.138;2022-11-20T18:17:13;12.95;;;8.82;;
37063;SDS011;23211;53.912;9.138;2022-11-20T18:20:00;11.45;;;8.00;;
37063;SDS011;23211;53.912;9.138;2022-11-20T18:22:45;10.38;;;7.43;;
37063;SDS011;23211;53.912;9.138;2022-11-20T18:25:31;13.43;;;7.57;;